sensor_id;sensor_type;location;lat;lon;timestamp;pressure;altitude;pressure_sealevel;temperature;humidity
53647;BME280;39550;52.230;5.194;2024-02-21T00:00:01;101990.56;;;7.33;100.00
53647;BME280;39550;52.230;5.194;2024-02-21T00:02:26;101985.56;;;7.36;100.00
53647;BME280;39550;52.230;5.194;2024-02-21T00:04:52;101995.00;;;7.37;100.00
53647;BME280;39550;52.230;5.194;2024-02-21T00:07:17;101991.63;;;7.38;100.00
53647;BME280;39550;52.230;5.194;2024-02-21T00:09:42;101993.31;;;7.38;100.00
53647;BME280;39550;52.230;5.194;2024-02-21T00:12:08;101977.06;;;7.37;100.00
53647;BME280;39550;52.230;5.194;2024-02-21T00:14:33;101982.19;;;7.37;100.00
53647;BME280;39550;52.230;5.194;2024-02-21T00:16:59;101979.69;;;7.39;100.00
53647;BME280;39550;52.230;5.194;2024-02-21T00:19:24;101971.94;;;7.37;100.00
53647;BME280;39550;52.230;5.194;2024-02-21T00:21:49;101976.25;;;7.38;100.00
53647;BME280;39550;52.230;5.194;2024-02-21T00:24:14;101983.06;;;7.38;100.00
53647;BME280;39550;52.230;5.194;2024-02-21T00:26:40;101983.94;;;7.38;100.00
53647;BME280;39550;52.230;5.194;2024-02-21T00:29:05;101977.94;;;7.38;100.00
53647;BME280;39550;52.230;5.194;2024-02-21T00:31:30;101978.81;;;7.38;100.00
53647;BME280;39550;52.230;5.194;2024-02-21T00:33:56;101990.81;;;7.39;100.00
53647;BME280;39550;52.230;5.194;2024-02-21T00:36:22;101976.00;;;7.32;100.00
53647;BME280;39550;52.230;5.194;2024-02-21T00:38:48;101983.19;;;7.41;100.00
53647;BME280;39550;52.230;5.194;2024-02-21T00:41:13;101985.81;;;7.42;100.00
53647;BME280;39550;52.230;5.194;2024-02-21T00:43:38;101977.22;;;7.42;100.00
53647;BME280;39550;52.230;5.194;2024-02-21T00:46:05;101975.56;;;7.42;100.00
53647;BME280;39550;52.230;5.194;2024-02-21T00:48:31;101961.84;;;7.42;100.00
53647;BME280;39550;52.230;5.194;2024-02-21T00:50:56;101972.03;;;7.40;100.00
53647;BME280;39550;52.230;5.194;2024-02-21T00:53:21;101961.78;;;7.40;100.00
53647;BME280;39550;52.230;5.194;2024-02-21T00:55:46;101968.63;;;7.40;100.00
53647;BME280;39550;52.230;5.194;2024-02-21T00:58:12;101960.03;;;7.39;100.00
53647;BME280;39550;52.230;5.194;2024-02-21T01:00:37;101975.41;;;7.39;100.00
53647;BME280;39550;52.230;5.194;2024-02-21T01:03:02;101973.69;;;7.38;100.00
53647;BME280;39550;52.230;5.194;2024-02-21T01:05:28;101966.81;;;7.37;100.00
53647;BME280;39550;52.230;5.194;2024-02-21T01:07:54;101963.38;;;7.37;100.00
53647;BME280;39550;52.230;5.194;2024-02-21T01:10:19;101966.81;;;7.37;100.00
53647;BME280;39550;52.230;5.194;2024-02-21T01:12:44;101965.03;;;7.36;100.00
53647;BME280;39550;52.230;5.194;2024-02-21T01:15:10;101959.91;;;7.36;100.00
53647;BME280;39550;52.230;5.194;2024-02-21T01:17:36;101955.75;;;7.38;100.00
53647;BME280;39550;52.230;5.194;2024-02-21T01:20:03;101953.19;;;7.38;100.00
53647;BME280;39550;52.230;5.194;2024-02-21T01:22:30;101948.03;;;7.38;100.00
53647;BME280;39550;52.230;5.194;2024-02-21T01:24:55;101945.47;;;7.38;100.00
53647;BME280;39550;52.230;5.194;2024-02-21T01:27:21;101930.09;;;7.38;100.00
53647;BME280;39550;52.230;5.194;2024-02-21T01:29:46;101937.78;;;7.38;100.00
53647;BME280;39550;52.230;5.194;2024-02-21T01:32:12;101936.94;;;7.39;100.00
53647;BME280;39550;52.230;5.194;2024-02-21T01:34:38;101925.78;;;7.37;100.00
53647;BME280;39550;52.230;5.194;2024-02-21T01:37:03;101927.53;;;7.38;100.00
53647;BME280;39550;52.230;5.194;2024-02-21T01:39:30;101911.25;;;7.38;100.00
53647;BME280;39550;52.230;5.194;2024-02-21T01:41:55;101909.59;;;7.38;100.00
53647;BME280;39550;52.230;5.194;2024-02-21T01:44:21;101901.00;;;7.38;100.00
53647;BME280;39550;52.230;5.194;2024-02-21T01:46:46;101902.69;;;7.37;100.00
53647;BME280;39550;52.230;5.194;2024-02-21T01:49:11;101901.88;;;7.38;100.00
53647;BME280;39550;52.230;5.194;2024-02-21T01:51:36;101907.03;;;7.38;100.00
53647;BME280;39550;52.230;5.194;2024-02-21T01:54:02;101898.47;;;7.39;100.00
53647;BME280;39550;52.230;5.194;2024-02-21T01:56:28;101902.75;;;7.39;100.00
53647;BME280;39550;52.230;5.194;2024-02-21T01:58:53;101904.44;;;7.38;100.00
53647;BME280;39550;52.230;5.194;2024-02-21T02:01:20;101899.31;;;7.38;100.00
53647;BME280;39550;52.230;5.194;2024-02-21T02:03:46;101900.19;;;7.39;100.00
53647;BME280;39550;52.230;5.194;2024-02-21T02:06:12;101909.63;;;7.40;100.00
53647;BME280;39550;52.230;5.194;2024-02-21T02:08:37;101895.88;;;7.38;100.00
53647;BME280;39550;52.230;5.194;2024-02-21T02:11:03;101886.50;;;7.38;100.00
53647;BME280;39550;52.230;5.194;2024-02-21T02:13:28;101895.88;;;7.38;100.00
53647;BME280;39550;52.230;5.194;2024-02-21T02:15:54;101882.19;;;7.37;100.00
53647;BME280;39550;52.230;5.194;2024-02-21T02:18:20;101883.94;;;7.38;100.00
53647;BME280;39550;52.230;5.194;2024-02-21T02:20:45;101878.81;;;7.38;100.00
53647;BME280;39550;52.230;5.194;2024-02-21T02:23:32;101876.06;;;7.33;100.00
53647;BME280;39550;52.230;5.194;2024-02-21T02:25:58;101851.66;;;7.21;100.00
53647;BME280;39550;52.230;5.194;2024-02-21T02:28:24;101879.63;;;7.37;100.00
53647;BME280;39550;52.230;5.194;2024-02-21T02:30:50;101876.25;;;7.38;100.00
53647;BME280;39550;52.230;5.194;2024-02-21T02:33:16;101868.59;;;7.40;100.00
53647;BME280;39550;52.230;5.194;2024-02-21T02:35:44;101862.59;;;7.39;100.00
53647;BME280;39550;52.230;5.194;2024-02-21T02:38:09;101860.91;;;7.40;100.00
53647;BME280;39550;52.230;5.194;2024-02-21T02:40:38;101866.09;;;7.41;100.00
53647;BME280;39550;52.230;5.194;2024-02-21T02:43:03;101871.16;;;7.40;100.00
53647;BME280;39550;52.230;5.194;2024-02-21T02:45:29;101843.47;;;7.31;100.00
53647;BME280;39550;52.230;5.194;2024-02-21T02:47:55;101860.84;;;7.38;100.00
53647;BME280;39550;52.230;5.194;2024-02-21T02:50:22;101846.34;;;7.39;100.00
53647;BME280;39550;52.230;5.194;2024-02-21T02:52:47;101848.09;;;7.40;100.00
53647;BME280;39550;52.230;5.194;2024-02-21T02:55:13;101839.50;;;7.39;100.00
53647;BME280;39550;52.230;5.194;2024-02-21T02:57:38;101839.44;;;7.38;100.00
53647;BME280;39550;52.230;5.194;2024-02-21T03:00:05;101835.22;;;7.38;100.00
53647;BME280;39550;52.230;5.194;2024-02-21T03:02:32;101838.59;;;7.37;100.00
53647;BME280;39550;52.230;5.194;2024-02-21T03:04:57;101843.72;;;7.37;100.00
53647;BME280;39550;52.230;5.194;2024-02-21T03:07:24;101839.44;;;7.38;100.00
53647;BME280;39550;52.230;5.194;2024-02-21T03:09:49;101830.09;;;7.38;100.00
53647;BME280;39550;52.230;5.194;2024-02-21T03:12:15;101821.56;;;7.39;100.00
53647;BME280;39550;52.230;5.194;2024-02-21T03:14:44;101823.19;;;7.37;100.00
53647;BME280;39550;52.230;5.194;2024-02-21T03:17:09;101822.41;;;7.38;100.00
53647;BME280;39550;52.230;5.194;2024-02-21T03:19:35;101813.00;;;7.39;100.00
53647;BME280;39550;52.230;5.194;2024-02-21T03:22:00;101798.41;;;7.38;100.00
53647;BME280;39550;52.230;5.194;2024-02-21T03:24:25;101797.56;;;7.37;100.00
53647;BME280;39550;52.230;5.194;2024-02-21T03:26:50;101794.19;;;7.38;100.00
53647;BME280;39550;52.230;5.194;2024-02-21T03:29:16;101799.31;;;7.38;100.00
53647;BME280;39550;52.230;5.194;2024-02-21T03:31:42;101783.03;;;7.38;100.00
53647;BME280;39550;52.230;5.194;2024-02-21T03:34:10;101783.94;;;7.38;100.00
53647;BME280;39550;52.230;5.194;2024-02-21T03:36:36;101776.94;;;7.34;100.00
53647;BME280;39550;52.230;5.194;2024-02-21T03:39:02;101784.75;;;7.37;100.00
53647;BME280;39550;52.230;5.194;2024-02-21T03:41:27;101772.78;;;7.38;100.00
53647;BME280;39550;52.230;5.194;2024-02-21T03:43:52;101767.66;;;7.38;100.00
53647;BME280;39550;52.230;5.194;2024-02-21T03:46:18;101769.41;;;7.39;100.00
53647;BME280;39550;52.230;5.194;2024-02-21T03:48:43;101772.84;;;7.39;100.00
53647;BME280;39550;52.230;5.194;2024-02-21T03:51:08;101779.66;;;7.39;100.00
53647;BME280;39550;52.230;5.194;2024-02-21T03:53:33;101777.16;;;7.40;100.00
53647;BME280;39550;52.230;5.194;2024-02-21T03:56:02;101772.03;;;7.40;100.00
53647;BME280;39550;52.230;5.194;2024-02-21T03:58:31;101763.47;;;7.40;100.00
53647;BME280;39550;52.230;5.194;2024-02-21T04:01:00;101764.28;;;7.39;100.00
53647;BME280;39550;52.230;5.194;2024-02-21T04:03:26;101753.03;;;7.35;100.00
53647;BME280;39550;52.230;5.194;2024-02-21T04:05:52;101766.03;;;7.40;100.00
53647;BME280;39550;52.230;5.194;2024-02-21T04:08:17;101764.34;;;7.40;100.00
53647;BME280;39550;52.230;5.194;2024-02-21T04:10:42;101768.53;;;7.38;100.00
53647;BME280;39550;52.230;5.194;2024-02-21T04:13:08;101751.47;;;7.39;100.00
53647;BME280;39550;52.230;5.194;2024-02-21T04:15:33;101748.91;;;7.39;100.00
53647;BME280;39550;52.230;5.194;2024-02-21T04:17:59;101748.03;;;7.38;100.00
53647;BME280;39550;52.230;5.194;2024-02-21T04:20:24;101749.75;;;7.39;100.00
53647;BME280;39550;52.230;5.194;2024-02-21T04:22:49;101754.88;;;7.39;100.00
53647;BME280;39550;52.230;5.194;2024-02-21T04:25:15;101746.38;;;7.40;100.00
53647;BME280;39550;52.230;5.194;2024-02-21T04:27:41;101734.16;;;7.33;100.00
53647;BME280;39550;52.230;5.194;2024-02-21T04:30:07;101749.75;;;7.39;100.00
53647;BME280;39550;52.230;5.194;2024-02-21T04:32:32;101752.31;;;7.39;100.00
53647;BME280;39550;52.230;5.194;2024-02-21T04:34:58;101744.63;;;7.39;100.00
53647;BME280;39550;52.230;5.194;2024-02-21T04:37:23;101744.63;;;7.39;100.00
53647;BME280;39550;52.230;5.194;2024-02-21T04:39:49;101744.63;;;7.39;100.00
53647;BME280;39550;52.230;5.194;2024-02-21T04:42:15;101739.50;;;7.39;100.00
53647;BME280;39550;52.230;5.194;2024-02-21T04:44:40;101736.06;;;7.39;100.00
53647;BME280;39550;52.230;5.194;2024-02-21T04:47:06;101737.78;;;7.38;100.00
53647;BME280;39550;52.230;5.194;2024-02-21T04:49:35;101730.09;;;7.38;100.00
53647;BME280;39550;52.230;5.194;2024-02-21T04:52:00;101728.34;;;7.37;100.00
53647;BME280;39550;52.230;5.194;2024-02-21T04:54:26;101726.69;;;7.39;100.00
53647;BME280;39550;52.230;5.194;2024-02-21T04:56:51;101725.81;;;7.39;100.00
53647;BME280;39550;52.230;5.194;2024-02-21T04:59:17;101722.38;;;7.38;100.00
53647;BME280;39550;52.230;5.194;2024-02-21T05:01:42;101724.13;;;7.39;100.00
53647;BME280;39550;52.230;5.194;2024-02-21T05:04:07;101722.38;;;7.38;100.00
53647;BME280;39550;52.230;5.194;2024-02-21T05:06:40;101726.63;;;7.38;100.00
53647;BME280;39550;52.230;5.194;2024-02-21T05:09:07;101705.09;;;7.32;100.00
53647;BME280;39550;52.230;5.194;2024-02-21T05:11:33;101707.81;;;7.37;100.00
53647;BME280;39550;52.230;5.194;2024-02-21T05:13:59;101702.69;;;7.37;100.00
53647;BME280;39550;52.230;5.194;2024-02-21T05:16:24;101703.50;;;7.36;100.00
53647;BME280;39550;52.230;5.194;2024-02-21T05:18:49;101701.88;;;7.38;100.00
53647;BME280;39550;52.230;5.194;2024-02-21T05:21:14;101694.13;;;7.37;100.00
53647;BME280;39550;52.230;5.194;2024-02-21T05:23:40;101691.63;;;7.38;100.00
53647;BME280;39550;52.230;5.194;2024-02-21T05:26:06;101689.91;;;7.39;100.00
53647;BME280;39550;52.230;5.194;2024-02-21T05:28:31;101684.75;;;7.37;100.00
53647;BME280;39550;52.230;5.194;2024-02-21T05:30:57;101675.28;;;7.36;100.00
53647;BME280;39550;52.230;5.194;2024-02-21T05:33:22;101665.03;;;7.36;100.00
53647;BME280;39550;52.230;5.194;2024-02-21T05:35:47;101665.94;;;7.37;100.00
53647;BME280;39550;52.230;5.194;2024-02-21T05:38:16;101655.69;;;7.37;100.00
53647;BME280;39550;52.230;5.194;2024-02-21T05:40:41;101653.97;;;7.37;100.00
53647;BME280;39550;52.230;5.194;2024-02-21T05:43:07;101643.72;;;7.37;100.00
53647;BME280;39550;52.230;5.194;2024-02-21T05:45:33;101644.53;;;7.36;100.00
53647;BME280;39550;52.230;5.194;2024-02-21T05:47:58;101637.72;;;7.37;100.00
53647;BME280;39550;52.230;5.194;2024-02-21T05:50:24;101631.69;;;7.36;100.00
53647;BME280;39550;52.230;5.194;2024-02-21T05:52:54;101622.22;;;7.33;100.00
53647;BME280;39550;52.230;5.194;2024-02-21T05:55:19;101630.84;;;7.36;100.00
53647;BME280;39550;52.230;5.194;2024-02-21T05:57:44;101630.84;;;7.36;100.00
53647;BME280;39550;52.230;5.194;2024-02-21T06:00:10;101633.47;;;7.37;100.00
53647;BME280;39550;52.230;5.194;2024-02-21T06:02:35;101628.31;;;7.37;100.00
53647;BME280;39550;52.230;5.194;2024-02-21T06:05:01;101630.84;;;7.36;100.00
53647;BME280;39550;52.230;5.194;2024-02-21T06:07:26;101625.75;;;7.37;100.00
53647;BME280;39550;52.230;5.194;2024-02-21T06:09:51;101632.59;;;7.37;100.00
53647;BME280;39550;52.230;5.194;2024-02-21T06:12:16;101614.69;;;7.38;100.00
53647;BME280;39550;52.230;5.194;2024-02-21T06:14:42;101612.94;;;7.37;100.00
53647;BME280;39550;52.230;5.194;2024-02-21T06:17:07;101594.72;;;7.29;100.00
53647;BME280;39550;52.230;5.194;2024-02-21T06:19:32;101618.06;;;7.37;100.00
53647;BME280;39550;52.230;5.194;2024-02-21T06:21:57;101619.81;;;7.38;100.00
53647;BME280;39550;52.230;5.194;2024-02-21T06:24:23;101610.38;;;7.37;100.00
53647;BME280;39550;52.230;5.194;2024-02-21T06:26:48;101607.59;;;7.31;100.00
53647;BME280;39550;52.230;5.194;2024-02-21T06:29:13;101615.38;;;7.32;100.00
53647;BME280;39550;52.230;5.194;2024-02-21T06:31:40;101633.47;;;7.37;100.00
53647;BME280;39550;52.230;5.194;2024-02-21T06:34:05;101630.09;;;7.38;100.00
53647;BME280;39550;52.230;5.194;2024-02-21T06:36:31;101624.94;;;7.38;100.00
53647;BME280;39550;52.230;5.194;2024-02-21T06:38:56;101630.09;;;7.38;100.00
53647;BME280;39550;52.230;5.194;2024-02-21T06:41:21;101626.66;;;7.39;100.00
53647;BME280;39550;52.230;5.194;2024-02-21T06:43:47;101623.25;;;7.39;100.00
53647;BME280;39550;52.230;5.194;2024-02-21T06:46:25;101624.94;;;7.38;100.00
53647;BME280;39550;52.230;5.194;2024-02-21T06:48:51;101625.81;;;7.39;100.00
53647;BME280;39550;52.230;5.194;2024-02-21T06:51:16;101621.53;;;7.39;100.00
53647;BME280;39550;52.230;5.194;2024-02-21T06:53:42;101612.09;;;7.37;100.00
53647;BME280;39550;52.230;5.194;2024-02-21T06:56:09;101608.69;;;7.38;100.00
53647;BME280;39550;52.230;5.194;2024-02-21T06:58:34;101606.97;;;7.37;100.00
53647;BME280;39550;52.230;5.194;2024-02-21T07:01:00;101610.38;;;7.37;100.00
53647;BME280;39550;52.230;5.194;2024-02-21T07:03:25;101606.06;;;7.36;100.00
53647;BME280;39550;52.230;5.194;2024-02-21T07:05:51;101600.16;;;7.39;100.00
53647;BME280;39550;52.230;5.194;2024-02-21T07:08:16;101597.66;;;7.40;100.00
53647;BME280;39550;52.230;5.194;2024-02-21T07:10:41;101590.78;;;7.39;100.00
53647;BME280;39550;52.230;5.194;2024-02-21T07:13:07;101597.56;;;7.37;100.00
53647;BME280;39550;52.230;5.194;2024-02-21T07:15:32;101594.19;;;7.38;100.00
53647;BME280;39550;52.230;5.194;2024-02-21T07:17:58;101583.94;;;7.38;100.00
53647;BME280;39550;52.230;5.194;2024-02-21T07:20:24;101587.31;;;7.37;100.00
53647;BME280;39550;52.230;5.194;2024-02-21T07:22:49;101591.63;;;7.38;100.00
53647;BME280;39550;52.230;5.194;2024-02-21T07:25:14;101582.19;;;7.37;100.00
53647;BME280;39550;52.230;5.194;2024-02-21T07:27:39;101584.75;;;7.37;100.00
53647;BME280;39550;52.230;5.194;2024-02-21T07:30:06;101584.75;;;7.37;100.00
53647;BME280;39550;52.230;5.194;2024-02-21T07:32:31;101575.28;;;7.36;100.00
53647;BME280;39550;52.230;5.194;2024-02-21T07:34:56;101576.09;;;7.35;100.00
53647;BME280;39550;52.230;5.194;2024-02-21T07:37:22;101566.75;;;7.36;100.00
53647;BME280;39550;52.230;5.194;2024-02-21T07:39:47;101555.59;;;7.35;100.00
53647;BME280;39550;52.230;5.194;2024-02-21T07:42:12;101552.19;;;7.35;100.00
53647;BME280;39550;52.230;5.194;2024-02-21T07:44:38;101542.72;;;7.33;100.00
53647;BME280;39550;52.230;5.194;2024-02-21T07:47:03;101537.66;;;7.35;100.00
53647;BME280;39550;52.230;5.194;2024-02-21T07:49:28;101538.53;;;7.36;100.00
53647;BME280;39550;52.230;5.194;2024-02-21T07:51:54;101525.72;;;7.36;100.00
53647;BME280;39550;52.230;5.194;2024-02-21T07:54:19;101527.41;;;7.35;100.00
53647;BME280;39550;52.230;5.194;2024-02-21T07:56:44;101529.97;;;7.35;100.00
53647;BME280;39550;52.230;5.194;2024-02-21T07:59:09;101527.41;;;7.35;100.00
53647;BME280;39550;52.230;5.194;2024-02-21T08:01:35;101532.53;;;7.35;100.00
53647;BME280;39550;52.230;5.194;2024-02-21T08:04:00;101535.97;;;7.36;100.00
53647;BME280;39550;52.230;5.194;2024-02-21T08:06:26;101538.53;;;7.36;100.00
53647;BME280;39550;52.230;5.194;2024-02-21T08:08:51;101530.91;;;7.37;100.00
53647;BME280;39550;52.230;5.194;2024-02-21T08:11:16;101534.28;;;7.36;100.00
53647;BME280;39550;52.230;5.194;2024-02-21T08:13:42;101524.03;;;7.36;100.00
53647;BME280;39550;52.230;5.194;2024-02-21T08:16:07;101519.69;;;7.35;100.00
53647;BME280;39550;52.230;5.194;2024-02-21T08:18:32;101518.88;;;7.36;100.00
53647;BME280;39550;52.230;5.194;2024-02-21T08:21:02;101501.56;;;7.29;100.00
53647;BME280;39550;52.230;5.194;2024-02-21T08:23:28;101516.31;;;7.36;100.00
53647;BME280;39550;52.230;5.194;2024-02-21T08:25:53;101512.09;;;7.37;100.00
53647;BME280;39550;52.230;5.194;2024-02-21T08:28:18;101502.69;;;7.37;100.00
53647;BME280;39550;52.230;5.194;2024-02-21T08:30:44;101498.38;;;7.36;100.00
53647;BME280;39550;52.230;5.194;2024-02-21T08:33:15;101493.25;;;7.36;100.00
53647;BME280;39550;52.230;5.194;2024-02-21T08:35:41;101501.75;;;7.35;100.00
53647;BME280;39550;52.230;5.194;2024-02-21T08:38:07;101488.94;;;7.35;100.00
53647;BME280;39550;52.230;5.194;2024-02-21T08:40:35;101489.78;;;7.34;100.00
53647;BME280;39550;52.230;5.194;2024-02-21T08:43:02;101484.66;;;7.34;100.00
53647;BME280;39550;52.230;5.194;2024-02-21T08:45:27;101477.00;;;7.36;100.00
53647;BME280;39550;52.230;5.194;2024-02-21T08:47:52;101468.41;;;7.35;100.00
53647;BME280;39550;52.230;5.194;2024-02-21T08:50:17;101461.63;;;7.36;100.00
53647;BME280;39550;52.230;5.194;2024-02-21T08:52:43;101467.59;;;7.36;100.00
53647;BME280;39550;52.230;5.194;2024-02-21T08:55:08;101455.53;;;7.32;100.00
53647;BME280;39550;52.230;5.194;2024-02-21T08:57:34;101466.78;;;7.37;100.00
53647;BME280;39550;52.230;5.194;2024-02-21T09:00:04;101461.56;;;7.34;100.00
53647;BME280;39550;52.230;5.194;2024-02-21T09:02:34;101459.97;;;7.38;100.00
53647;BME280;39550;52.230;5.194;2024-02-21T09:05:00;101462.56;;;7.39;100.00
53647;BME280;39550;52.230;5.194;2024-02-21T09:07:25;101459.19;;;7.40;100.00
53647;BME280;39550;52.230;5.194;2024-02-21T09:09:50;101447.19;;;7.39;100.00
53647;BME280;39550;52.230;5.194;2024-02-21T09:12:15;101458.28;;;7.38;100.00
53647;BME280;39550;52.230;5.194;2024-02-21T09:14:41;101448.84;;;7.37;100.00
53647;BME280;39550;52.230;5.194;2024-02-21T09:17:06;101439.44;;;7.38;100.00
53647;BME280;39550;52.230;5.194;2024-02-21T09:19:33;101438.59;;;7.37;100.00
53647;BME280;39550;52.230;5.194;2024-02-21T09:21:58;101435.22;;;7.38;100.00
53647;BME280;39550;52.230;5.194;2024-02-21T09:24:23;101433.47;;;7.37;100.00
53647;BME280;39550;52.230;5.194;2024-02-21T09:26:49;101424.06;;;7.38;100.00
53647;BME280;39550;52.230;5.194;2024-02-21T09:29:14;101424.97;;;7.38;100.00
53647;BME280;39550;52.230;5.194;2024-02-21T09:31:41;101419.81;;;7.38;100.00
53647;BME280;39550;52.230;5.194;2024-02-21T09:34:07;101419.81;;;7.38;100.00
53647;BME280;39550;52.230;5.194;2024-02-21T09:36:32;101407.81;;;7.37;100.00
53647;BME280;39550;52.230;5.194;2024-02-21T09:38:57;101403.59;;;7.39;100.00
53647;BME280;39550;52.230;5.194;2024-02-21T09:41:26;101400.22;;;7.40;100.00
53647;BME280;39550;52.230;5.194;2024-02-21T09:43:54;101395.91;;;7.39;100.00
53647;BME280;39550;52.230;5.194;2024-02-21T09:49:18;101369.41;;;7.39;100.00
53647;BME280;39550;52.230;5.194;2024-02-21T09:51:47;101360.84;;;7.38;100.00
53647;BME280;39550;52.230;5.194;2024-02-21T09:54:14;101351.41;;;7.37;100.00
53647;BME280;39550;52.230;5.194;2024-02-21T09:56:40;101351.56;;;7.43;100.00
53647;BME280;39550;52.230;5.194;2024-02-21T09:59:05;101332.81;;;7.44;100.00
53647;BME280;39550;52.230;5.194;2024-02-21T10:01:32;101330.25;;;7.44;100.00
53647;BME280;39550;52.230;5.194;2024-02-21T10:03:57;101324.22;;;7.42;100.00
53647;BME280;39550;52.230;5.194;2024-02-21T10:06:23;101321.66;;;7.42;100.00
53647;BME280;39550;52.230;5.194;2024-02-21T10:08:55;101317.34;;;7.41;100.00
53647;BME280;39550;52.230;5.194;2024-02-21T10:11:24;101314.78;;;7.41;100.00
53647;BME280;39550;52.230;5.194;2024-02-21T10:13:50;101312.22;;;7.41;100.00
53647;BME280;39550;52.230;5.194;2024-02-21T10:16:15;101301.97;;;7.41;100.00
53647;BME280;39550;52.230;5.194;2024-02-21T10:18:41;101301.03;;;7.39;100.00
53647;BME280;39550;52.230;5.194;2024-02-21T10:21:07;101296.84;;;7.41;100.00
53647;BME280;39550;52.230;5.194;2024-02-21T10:23:49;101283.19;;;7.42;100.00
53647;BME280;39550;52.230;5.194;2024-02-21T10:26:16;101268.41;;;7.33;100.00
53647;BME280;39550;52.230;5.194;2024-02-21T10:28:43;101279.72;;;7.40;100.00
53647;BME280;39550;52.230;5.194;2024-02-21T10:31:11;101289.19;;;7.43;100.00
53647;BME280;39550;52.230;5.194;2024-02-21T10:33:37;101278.06;;;7.42;100.00
53647;BME280;39550;52.230;5.194;2024-02-21T10:36:10;101267.81;;;7.42;100.00
53647;BME280;39550;52.230;5.194;2024-02-21T10:38:37;101240.25;;;7.35;100.00
53647;BME280;39550;52.230;5.194;2024-02-21T10:41:04;101259.28;;;7.43;100.00
53647;BME280;39550;52.230;5.194;2024-02-21T10:43:37;101248.16;;;7.43;100.00
53647;BME280;39550;52.230;5.194;2024-02-21T10:46:05;101246.44;;;7.43;100.00
53647;BME280;39550;52.230;5.194;2024-02-21T10:48:46;101239.66;;;7.44;100.00
53647;BME280;39550;52.230;5.194;2024-02-21T10:51:17;101216.53;;;7.42;100.00
53647;BME280;39550;52.230;5.194;2024-02-21T10:56:30;101202.94;;;7.45;100.00
53647;BME280;39550;52.230;5.194;2024-02-21T10:59:04;101172.19;;;7.46;100.00
53647;BME280;39550;52.230;5.194;2024-02-21T11:01:29;101161.94;;;7.46;100.00
53647;BME280;39550;52.230;5.194;2024-02-21T11:03:58;101167.06;;;7.46;100.00
53647;BME280;39550;52.230;5.194;2024-02-21T11:06:26;101236.34;;;7.48;100.00
53647;BME280;39550;52.230;5.194;2024-02-21T11:09:00;101239.78;;;7.50;100.00
53647;BME280;39550;52.230;5.194;2024-02-21T11:11:26;101231.28;;;7.51;100.00
53647;BME280;39550;52.230;5.194;2024-02-21T11:13:51;101242.41;;;7.52;100.00
53647;BME280;39550;52.230;5.194;2024-02-21T11:16:23;101223.63;;;7.53;100.00
53647;BME280;39550;52.230;5.194;2024-02-21T11:18:48;101221.88;;;7.52;100.00
53647;BME280;39550;52.230;5.194;2024-02-21T11:21:15;101224.47;;;7.53;100.00
53647;BME280;39550;52.230;5.194;2024-02-21T11:23:40;101224.47;;;7.53;100.00
53647;BME280;39550;52.230;5.194;2024-02-21T11:26:09;101215.13;;;7.54;100.00
53647;BME280;39550;52.230;5.194;2024-02-21T11:28:36;101208.31;;;7.56;100.00
53647;BME280;39550;52.230;5.194;2024-02-21T11:31:10;101188.66;;;7.55;100.00
53647;BME280;39550;52.230;5.194;2024-02-21T11:33:39;101186.94;;;7.55;100.00
53647;BME280;39550;52.230;5.194;2024-02-21T11:36:05;101181.75;;;7.52;100.00
53647;BME280;39550;52.230;5.194;2024-02-21T11:38:30;101168.88;;;7.50;100.00
53647;BME280;39550;52.230;5.194;2024-02-21T11:40:55;101153.50;;;7.50;100.00
53647;BME280;39550;52.230;5.194;2024-02-21T11:43:20;101152.66;;;7.52;100.00
53647;BME280;39550;52.230;5.194;2024-02-21T11:45:46;101147.47;;;7.50;100.00
53647;BME280;39550;52.230;5.194;2024-02-21T11:48:11;101151.75;;;7.49;100.00
53647;BME280;39550;52.230;5.194;2024-02-21T11:50:37;101149.22;;;7.51;100.00
53647;BME280;39550;52.230;5.194;2024-02-21T11:53:04;101116.59;;;7.45;100.00
53647;BME280;39550;52.230;5.194;2024-02-21T11:55:29;101083.28;;;7.45;100.00
53647;BME280;39550;52.230;5.194;2024-02-21T11:57:54;101097.09;;;7.50;100.00
53647;BME280;39550;52.230;5.194;2024-02-21T12:00:20;101064.56;;;7.49;100.00
53647;BME280;39550;52.230;5.194;2024-02-21T12:02:46;101063.75;;;7.50;100.00
53647;BME280;39550;52.230;5.194;2024-02-21T12:05:12;101048.38;;;7.50;100.00
53647;BME280;39550;52.230;5.194;2024-02-21T12:07:37;101044.06;;;7.49;100.00
53647;BME280;39550;52.230;5.194;2024-02-21T12:10:08;101032.13;;;7.52;100.00
53647;BME280;39550;52.230;5.194;2024-02-21T12:12:35;101032.13;;;7.52;100.00
53647;BME280;39550;52.230;5.194;2024-02-21T12:15:03;101023.59;;;7.53;100.00
53647;BME280;39550;52.230;5.194;2024-02-21T12:17:30;101014.16;;;7.52;100.00
53647;BME280;39550;52.230;5.194;2024-02-21T12:19:56;101023.59;;;7.53;100.00
53647;BME280;39550;52.230;5.194;2024-02-21T12:22:22;101018.41;;;7.49;100.00
53647;BME280;39550;52.230;5.194;2024-02-21T12:24:47;101012.53;;;7.54;100.00
53647;BME280;39550;52.230;5.194;2024-02-21T12:27:13;101000.53;;;7.53;100.00
53647;BME280;39550;52.230;5.194;2024-02-21T12:29:39;101003.94;;;7.53;100.00
53647;BME280;39550;52.230;5.194;2024-02-21T12:32:04;100986.84;;;7.52;100.00
53647;BME280;39550;52.230;5.194;2024-02-21T12:34:30;100974.81;;;7.49;100.00
53647;BME280;39550;52.230;5.194;2024-02-21T12:36:58;100966.34;;;7.52;100.00
53647;BME280;39550;52.230;5.194;2024-02-21T12:39:23;100966.31;;;7.50;100.00
53647;BME280;39550;52.230;5.194;2024-02-21T12:41:49;100966.38;;;7.54;100.00
53647;BME280;39550;52.230;5.194;2024-02-21T12:44:14;100950.16;;;7.55;100.00
53647;BME280;39550;52.230;5.194;2024-02-21T12:46:41;100934.78;;;7.55;100.00
53647;BME280;39550;52.230;5.194;2024-02-21T12:49:06;100915.84;;;7.49;100.00